sensor_id;sensor_type;location;lat;lon;timestamp;pressure;altitude;pressure_sealevel;temperature;humidity
74621;BME280;75998;47.550;19.254;2024-02-21T00:02:11;99883.28;;;5.77;81.13
74621;BME280;75998;47.550;19.254;2024-02-21T00:04:39;99953.75;;;6.15;80.80
74621;BME280;75998;47.550;19.254;2024-02-21T00:07:07;99986.78;;;6.35;80.97
74621;BME280;75998;47.550;19.254;2024-02-21T00:09:33;99891.00;;;5.79;80.95
74621;BME280;75998;47.550;19.254;2024-02-21T00:11:58;99977.50;;;6.29;80.89
74621;BME280;75998;47.550;19.254;2024-02-21T00:14:24;99930.25;;;5.95;81.25
74621;BME280;75998;47.550;19.254;2024-02-21T00:16:52;99901.47;;;5.76;81.22
74621;BME280;75998;47.550;19.254;2024-02-21T00:19:18;99980.97;;;6.28;81.62
74621;BME280;75998;47.550;19.254;2024-02-21T00:21:43;99898.56;;;5.85;80.81
74621;BME280;75998;47.550;19.254;2024-02-21T00:24:09;99891.81;;;5.81;80.81
74621;BME280;75998;47.550;19.254;2024-02-21T00:26:37;99962.03;;;6.26;80.86
74621;BME280;75998;47.550;19.254;2024-02-21T00:29:05;99884.88;;;5.81;80.94
74621;BME280;75998;47.550;19.254;2024-02-21T00:31:31;99859.47;;;5.66;81.18
74621;BME280;75998;47.550;19.254;2024-02-21T00:34:01;99958.59;;;6.26;81.16
74621;BME280;75998;47.550;19.254;2024-02-21T00:36:29;99955.25;;;6.22;81.14
74621;BME280;75998;47.550;19.254;2024-02-21T00:38:57;99935.66;;;6.14;81.76
74621;BME280;75998;47.550;19.254;2024-02-21T00:41:25;99896.50;;;5.96;81.26
74621;BME280;75998;47.550;19.254;2024-02-21T00:43:54;99911.00;;;6.02;81.38
74621;BME280;75998;47.550;19.254;2024-02-21T00:46:20;99936.22;;;6.22;80.88
74621;BME280;75998;47.550;19.254;2024-02-21T00:48:48;99820.91;;;5.57;80.98
74621;BME280;75998;47.550;19.254;2024-02-21T00:51:15;99792.09;;;5.41;80.29
74621;BME280;75998;47.550;19.254;2024-02-21T00:53:41;99865.78;;;5.84;80.63
74621;BME280;75998;47.550;19.254;2024-02-21T00:56:09;99912.34;;;6.12;81.37
74621;BME280;75998;47.550;19.254;2024-02-21T00:58:35;99875.09;;;5.89;81.16
74621;BME280;75998;47.550;19.254;2024-02-21T01:01:03;99833.66;;;5.63;81.03
74621;BME280;75998;47.550;19.254;2024-02-21T01:03:34;99900.56;;;6.03;80.53
74621;BME280;75998;47.550;19.254;2024-02-21T01:05:59;99948.72;;;6.35;80.55
74621;BME280;75998;47.550;19.254;2024-02-21T01:08:25;99853.00;;;5.78;80.60
74621;BME280;75998;47.550;19.254;2024-02-21T01:10:50;99920.25;;;6.09;80.35
74621;BME280;75998;47.550;19.254;2024-02-21T01:13:19;99886.16;;;5.95;79.51
74621;BME280;75998;47.550;19.254;2024-02-21T01:15:47;99938.56;;;6.29;79.28
74621;BME280;75998;47.550;19.254;2024-02-21T01:18:12;99918.78;;;6.25;79.22
74621;BME280;75998;47.550;19.254;2024-02-21T01:20:38;99843.59;;;5.75;79.67
74621;BME280;75998;47.550;19.254;2024-02-21T01:23:03;99860.63;;;5.82;79.70
74621;BME280;75998;47.550;19.254;2024-02-21T01:25:33;99897.88;;;6.06;80.20
74621;BME280;75998;47.550;19.254;2024-02-21T01:27:58;99914.81;;;6.17;80.02
74621;BME280;75998;47.550;19.254;2024-02-21T01:30:26;99909.22;;;6.02;79.83
74621;BME280;75998;47.550;19.254;2024-02-21T01:32:51;99928.63;;;6.17;79.78
74621;BME280;75998;47.550;19.254;2024-02-21T01:35:17;99943.03;;;6.26;79.84
74621;BME280;75998;47.550;19.254;2024-02-21T01:37:46;99830.47;;;5.55;79.55
74621;BME280;75998;47.550;19.254;2024-02-21T01:40:14;99909.94;;;6.07;79.67
74621;BME280;75998;47.550;19.254;2024-02-21T01:42:49;99930.16;;;6.23;79.97
74621;BME280;75998;47.550;19.254;2024-02-21T01:45:18;99894.03;;;5.93;79.71
74621;BME280;75998;47.550;19.254;2024-02-21T01:47:44;99802.06;;;5.52;78.83
74621;BME280;75998;47.550;19.254;2024-02-21T01:50:21;99916.44;;;6.19;78.28
74621;BME280;75998;47.550;19.254;2024-02-21T01:52:51;99767.38;;;5.31;78.73
74621;BME280;75998;47.550;19.254;2024-02-21T01:55:18;99816.25;;;5.67;77.96
74621;BME280;75998;47.550;19.254;2024-02-21T01:57:44;99931.44;;;6.34;78.10
74621;BME280;75998;47.550;19.254;2024-02-21T02:00:13;99730.59;;;5.21;77.09
74621;BME280;75998;47.550;19.254;2024-02-21T02:02:41;99874.56;;;6.05;77.18
74621;BME280;75998;47.550;19.254;2024-02-21T02:05:07;99727.81;;;5.26;76.36
74621;BME280;75998;47.550;19.254;2024-02-21T02:07:39;99853.91;;;6.02;76.54
74621;BME280;75998;47.550;19.254;2024-02-21T02:10:05;99922.88;;;6.32;76.65
74621;BME280;75998;47.550;19.254;2024-02-21T02:12:31;99917.72;;;6.31;76.84
74621;BME280;75998;47.550;19.254;2024-02-21T02:15:01;99919.59;;;6.27;76.57
74621;BME280;75998;47.550;19.254;2024-02-21T02:17:32;99822.91;;;5.74;77.09
74621;BME280;75998;47.550;19.254;2024-02-21T02:19:57;99912.94;;;6.20;77.33
74621;BME280;75998;47.550;19.254;2024-02-21T02:22:28;99794.34;;;5.50;76.37
74621;BME280;75998;47.550;19.254;2024-02-21T02:24:55;99798.63;;;5.51;76.43
74621;BME280;75998;47.550;19.254;2024-02-21T02:27:20;99808.69;;;5.60;76.73
74621;BME280;75998;47.550;19.254;2024-02-21T02:29:51;99901.88;;;6.15;76.88
74621;BME280;75998;47.550;19.254;2024-02-21T02:32:17;99890.34;;;5.99;77.05
74621;BME280;75998;47.550;19.254;2024-02-21T02:34:46;99852.06;;;5.80;77.34
74621;BME280;75998;47.550;19.254;2024-02-21T02:37:11;99907.16;;;6.12;76.95
74621;BME280;75998;47.550;19.254;2024-02-21T02:39:37;99826.78;;;5.62;76.45
74621;BME280;75998;47.550;19.254;2024-02-21T02:42:07;99897.97;;;6.03;76.37
74621;BME280;75998;47.550;19.254;2024-02-21T02:44:35;99886.06;;;5.98;76.70
74621;BME280;75998;47.550;19.254;2024-02-21T02:47:03;99865.25;;;5.74;77.18
74621;BME280;75998;47.550;19.254;2024-02-21T02:49:29;99848.31;;;5.64;76.96
74621;BME280;75998;47.550;19.254;2024-02-21T02:51:57;99832.25;;;5.53;76.94
74621;BME280;75998;47.550;19.254;2024-02-21T02:54:22;99891.44;;;5.92;76.63
74621;BME280;75998;47.550;19.254;2024-02-21T02:56:50;99878.63;;;5.87;77.31
74621;BME280;75998;47.550;19.254;2024-02-21T02:59:16;99893.94;;;5.95;76.68
74621;BME280;75998;47.550;19.254;2024-02-21T03:01:42;99878.63;;;5.87;76.81
74621;BME280;75998;47.550;19.254;2024-02-21T03:04:07;99852.38;;;5.71;76.50
74621;BME280;75998;47.550;19.254;2024-02-21T03:06:35;99825.41;;;5.52;77.00
74621;BME280;75998;47.550;19.254;2024-02-21T03:09:01;99856.94;;;5.64;76.67
74621;BME280;75998;47.550;19.254;2024-02-21T03:11:27;99875.44;;;5.79;76.40
74621;BME280;75998;47.550;19.254;2024-02-21T03:13:57;99836.47;;;5.57;76.85
74621;BME280;75998;47.550;19.254;2024-02-21T03:16:25;99828.06;;;5.50;76.84
74621;BME280;75998;47.550;19.254;2024-02-21T03:18:54;99867.25;;;5.66;76.53
74621;BME280;75998;47.550;19.254;2024-02-21T03:21:22;99857.03;;;5.61;76.53
74621;BME280;75998;47.550;19.254;2024-02-21T03:23:52;99878.31;;;5.71;76.66
74621;BME280;75998;47.550;19.254;2024-02-21T03:26:18;99831.69;;;5.45;76.69
74621;BME280;75998;47.550;19.254;2024-02-21T03:28:44;99851.22;;;5.55;76.10
74621;BME280;75998;47.550;19.254;2024-02-21T03:31:17;99885.88;;;5.77;75.48
74621;BME280;75998;47.550;19.254;2024-02-21T03:33:43;99861.28;;;5.64;76.00
74621;BME280;75998;47.550;19.254;2024-02-21T03:36:15;99883.50;;;5.71;75.13
74621;BME280;75998;47.550;19.254;2024-02-21T03:38:41;99885.03;;;5.77;75.26
74621;BME280;75998;47.550;19.254;2024-02-21T03:41:12;99803.41;;;5.13;74.97
74621;BME280;75998;47.550;19.254;2024-02-21T03:43:41;99809.84;;;5.27;75.03
74621;BME280;75998;47.550;19.254;2024-02-21T03:46:09;99905.69;;;5.80;75.00
74621;BME280;75998;47.550;19.254;2024-02-21T03:48:37;99788.09;;;5.06;75.03
74621;BME280;75998;47.550;19.254;2024-02-21T03:51:05;99874.44;;;5.58;75.17
74621;BME280;75998;47.550;19.254;2024-02-21T03:53:31;99872.13;;;5.50;74.97
74621;BME280;75998;47.550;19.254;2024-02-21T03:55:56;99897.59;;;5.62;75.27
74621;BME280;75998;47.550;19.254;2024-02-21T03:58:25;99779.97;;;4.90;74.86
74621;BME280;75998;47.550;19.254;2024-02-21T04:00:53;99875.97;;;5.38;75.08
74621;BME280;75998;47.550;19.254;2024-02-21T04:03:21;99837.06;;;5.13;75.54
74621;BME280;75998;47.550;19.254;2024-02-21T04:05:50;99808.25;;;4.96;75.78
74621;BME280;75998;47.550;19.254;2024-02-21T04:08:16;99907.56;;;5.50;76.49
74621;BME280;75998;47.550;19.254;2024-02-21T04:10:41;99877.00;;;5.33;75.91
74621;BME280;75998;47.550;19.254;2024-02-21T04:13:07;99818.78;;;4.91;76.19
74621;BME280;75998;47.550;19.254;2024-02-21T04:15:32;99900.47;;;5.28;76.89
74621;BME280;75998;47.550;19.254;2024-02-21T04:17:58;99812.31;;;4.78;76.95
74621;BME280;75998;47.550;19.254;2024-02-21T04:20:26;99916.78;;;5.32;76.27
74621;BME280;75998;47.550;19.254;2024-02-21T04:22:54;99880.69;;;4.99;76.94
74621;BME280;75998;47.550;19.254;2024-02-21T04:25:23;99908.69;;;5.14;76.87
74621;BME280;75998;47.550;19.254;2024-02-21T04:27:50;99761.03;;;4.35;76.64
74621;BME280;75998;47.550;19.254;2024-02-21T04:30:21;99896.75;;;5.10;77.10
74621;BME280;75998;47.550;19.254;2024-02-21T04:32:47;99787.38;;;4.47;77.06
74621;BME280;75998;47.550;19.254;2024-02-21T04:35:13;99900.13;;;5.12;77.35
74621;BME280;75998;47.550;19.254;2024-02-21T04:37:39;99879.19;;;4.92;77.21
74621;BME280;75998;47.550;19.254;2024-02-21T04:40:05;99814.66;;;4.58;77.13
74621;BME280;75998;47.550;19.254;2024-02-21T04:42:30;99818.09;;;4.58;77.14
74621;BME280;75998;47.550;19.254;2024-02-21T04:44:56;99881.78;;;4.92;77.20
74621;BME280;75998;47.550;19.254;2024-02-21T04:50:44;99768.47;;;4.17;76.85
74621;BME280;75998;47.550;19.254;2024-02-21T04:53:09;99835.41;;;4.56;77.07
74621;BME280;75998;47.550;19.254;2024-02-21T04:55:47;99878.69;;;4.81;76.90
74621;BME280;75998;47.550;19.254;2024-02-21T04:58:15;99849.97;;;4.60;76.95
74621;BME280;75998;47.550;19.254;2024-02-21T05:04:04;99843.66;;;4.41;76.81
74621;BME280;75998;47.550;19.254;2024-02-21T05:09:40;99910.47;;;4.56;78.90
74621;BME280;75998;47.550;19.254;2024-02-21T05:12:07;99914.31;;;4.43;79.45
74621;BME280;75998;47.550;19.254;2024-02-21T05:14:33;99915.44;;;4.34;79.88
74621;BME280;75998;47.550;19.254;2024-02-21T05:17:00;99890.41;;;4.04;80.14
74621;BME280;75998;47.550;19.254;2024-02-21T05:22:34;99832.22;;;3.58;81.15
74621;BME280;75998;47.550;19.254;2024-02-21T05:25:00;99912.91;;;4.00;81.53
74621;BME280;75998;47.550;19.254;2024-02-21T05:27:51;99924.09;;;4.00;80.72
74621;BME280;75998;47.550;19.254;2024-02-21T05:33:37;99684.56;;;2.42;80.93
74621;BME280;75998;47.550;19.254;2024-02-21T05:36:34;99920.97;;;3.89;81.31
74621;BME280;75998;47.550;19.254;2024-02-21T05:38:59;99895.47;;;3.75;80.81
74621;BME280;75998;47.550;19.254;2024-02-21T05:45:23;99880.41;;;3.59;80.81
74621;BME280;75998;47.550;19.254;2024-02-21T05:58:07;99935.53;;;3.59;81.82
74621;BME280;75998;47.550;19.254;2024-02-21T06:00:35;99920.94;;;3.57;82.19
74621;BME280;75998;47.550;19.254;2024-02-21T06:03:28;99931.00;;;3.67;81.86
74621;BME280;75998;47.550;19.254;2024-02-21T06:05:56;99874.13;;;3.35;82.32
74621;BME280;75998;47.550;19.254;2024-02-21T06:08:40;99881.72;;;3.41;81.95
74621;BME280;75998;47.550;19.254;2024-02-21T06:11:08;99918.75;;;3.75;81.97
74621;BME280;75998;47.550;19.254;2024-02-21T06:14:00;99934.41;;;4.02;81.91
74621;BME280;75998;47.550;19.254;2024-02-21T06:16:28;99943.47;;;4.17;81.80
74621;BME280;75998;47.550;19.254;2024-02-21T06:19:02;99897.38;;;4.02;81.89
74621;BME280;75998;47.550;19.254;2024-02-21T06:21:31;99918.13;;;4.30;81.66
74621;BME280;75998;47.550;19.254;2024-02-21T06:23:56;99851.00;;;3.94;81.29
74621;BME280;75998;47.550;19.254;2024-02-21T06:30:13;99914.31;;;4.43;81.03
74621;BME280;75998;47.550;19.254;2024-02-21T06:32:39;99924.31;;;4.55;81.09
74621;BME280;75998;47.550;19.254;2024-02-21T06:35:08;99950.44;;;4.77;80.96
74621;BME280;75998;47.550;19.254;2024-02-21T06:47:59;99962.28;;;5.12;79.41
74621;BME280;75998;47.550;19.254;2024-02-21T06:50:25;99965.16;;;5.03;79.79
74621;BME280;75998;47.550;19.254;2024-02-21T06:52:53;99944.09;;;4.86;79.33
74621;BME280;75998;47.550;19.254;2024-02-21T06:55:50;99972.00;;;5.06;79.50
74621;BME280;75998;47.550;19.254;2024-02-21T06:58:16;99914.28;;;4.74;80.11
74621;BME280;75998;47.550;19.254;2024-02-21T07:00:43;99934.28;;;4.97;80.00
74621;BME280;75998;47.550;19.254;2024-02-21T07:03:21;99814.44;;;4.37;79.37
74621;BME280;75998;47.550;19.254;2024-02-21T07:09:42;99909.16;;;5.27;77.99
74621;BME280;75998;47.550;19.254;2024-02-21T07:12:07;99901.78;;;5.41;77.04
74621;BME280;75998;47.550;19.254;2024-02-21T07:14:46;99954.53;;;5.94;76.77
74621;BME280;75998;47.550;19.254;2024-02-21T07:17:14;99978.03;;;6.14;75.82
74621;BME280;75998;47.550;19.254;2024-02-21T07:23:35;99890.50;;;6.19;74.21
74621;BME280;75998;47.550;19.254;2024-02-21T07:26:07;99898.09;;;6.24;73.86
74621;BME280;75998;47.550;19.254;2024-02-21T07:28:32;99876.81;;;6.38;73.25
74621;BME280;75998;47.550;19.254;2024-02-21T07:33:57;99992.63;;;7.34;71.43
74621;BME280;75998;47.550;19.254;2024-02-21T07:36:28;99955.34;;;7.35;70.56
74621;BME280;75998;47.550;19.254;2024-02-21T07:38:57;99931.28;;;7.30;71.04
74621;BME280;75998;47.550;19.254;2024-02-21T07:41:33;99929.50;;;7.52;70.55
74621;BME280;75998;47.550;19.254;2024-02-21T07:44:00;99993.72;;;7.72;69.88
74621;BME280;75998;47.550;19.254;2024-02-21T07:46:28;99993.22;;;8.05;69.17
74621;BME280;75998;47.550;19.254;2024-02-21T07:48:54;99973.25;;;7.85;68.48
74621;BME280;75998;47.550;19.254;2024-02-21T07:51:22;99885.59;;;7.45;68.77
74621;BME280;75998;47.550;19.254;2024-02-21T07:53:47;99996.81;;;7.81;68.98
74621;BME280;75998;47.550;19.254;2024-02-21T07:56:19;99910.38;;;7.53;67.95
74621;BME280;75998;47.550;19.254;2024-02-21T07:58:45;99904.13;;;7.58;67.30
74621;BME280;75998;47.550;19.254;2024-02-21T08:01:21;99993.09;;;8.49;66.63
74621;BME280;75998;47.550;19.254;2024-02-21T08:03:46;99996.75;;;8.64;66.43
74621;BME280;75998;47.550;19.254;2024-02-21T08:06:13;99948.56;;;8.74;65.92
74621;BME280;75998;47.550;19.254;2024-02-21T08:09:12;99995.59;;;8.90;65.16
74621;BME280;75998;47.550;19.254;2024-02-21T08:11:46;99971.41;;;8.49;64.34
74621;BME280;75998;47.550;19.254;2024-02-21T08:14:15;99927.69;;;7.95;65.51
74621;BME280;75998;47.550;19.254;2024-02-21T08:16:44;99749.03;;;7.75;64.92
74621;BME280;75998;47.550;19.254;2024-02-21T08:19:14;99988.09;;;9.39;63.89
74621;BME280;75998;47.550;19.254;2024-02-21T08:21:42;99914.25;;;9.20;63.20
74621;BME280;75998;47.550;19.254;2024-02-21T08:24:08;99938.97;;;9.30;62.89
74621;BME280;75998;47.550;19.254;2024-02-21T08:26:33;99983.00;;;9.55;62.70
74621;BME280;75998;47.550;19.254;2024-02-21T08:28:59;99918.56;;;8.84;62.47
74621;BME280;75998;47.550;19.254;2024-02-21T08:31:28;99877.56;;;8.69;63.07
74621;BME280;75998;47.550;19.254;2024-02-21T08:34:10;99972.63;;;8.98;63.38
74621;BME280;75998;47.550;19.254;2024-02-21T08:36:40;99954.69;;;9.28;62.14
74621;BME280;75998;47.550;19.254;2024-02-21T08:39:14;99909.06;;;9.37;61.70
74621;BME280;75998;47.550;19.254;2024-02-21T08:41:44;99927.66;;;9.65;59.99
74621;BME280;75998;47.550;19.254;2024-02-21T08:44:12;99909.78;;;9.58;60.22
74621;BME280;75998;47.550;19.254;2024-02-21T08:46:39;99954.41;;;10.21;59.99
74621;BME280;75998;47.550;19.254;2024-02-21T08:49:06;99986.09;;;9.80;59.64
74621;BME280;75998;47.550;19.254;2024-02-21T08:51:31;99937.88;;;9.70;59.98
74621;BME280;75998;47.550;19.254;2024-02-21T08:54:01;99984.94;;;10.03;59.81
74621;BME280;75998;47.550;19.254;2024-02-21T08:56:32;99957.22;;;10.51;60.50
74621;BME280;75998;47.550;19.254;2024-02-21T08:58:59;99971.78;;;10.89;59.49
74621;BME280;75998;47.550;19.254;2024-02-21T09:01:26;99959.81;;;10.85;58.14
74621;BME280;75998;47.550;19.254;2024-02-21T09:03:57;99978.03;;;11.02;57.71
74621;BME280;75998;47.550;19.254;2024-02-21T09:06:26;99971.03;;;10.87;58.10
74621;BME280;75998;47.550;19.254;2024-02-21T09:08:57;99981.84;;;10.96;57.97
74621;BME280;75998;47.550;19.254;2024-02-21T09:11:29;99961.50;;;10.37;58.71
74621;BME280;75998;47.550;19.254;2024-02-21T09:13:58;99961.06;;;9.94;60.04
74621;BME280;75998;47.550;19.254;2024-02-21T09:16:25;99992.59;;;9.89;59.95
74621;BME280;75998;47.550;19.254;2024-02-21T09:18:53;99977.03;;;10.05;59.54
74621;BME280;75998;47.550;19.254;2024-02-21T09:21:19;99946.38;;;10.26;59.10
74621;BME280;75998;47.550;19.254;2024-02-21T09:23:47;99981.31;;;11.05;58.52
74621;BME280;75998;47.550;19.254;2024-02-21T09:26:12;99951.63;;;10.91;57.45
74621;BME280;75998;47.550;19.254;2024-02-21T09:28:47;99918.41;;;11.39;57.33
74621;BME280;75998;47.550;19.254;2024-02-21T09:31:13;99898.84;;;11.46;56.73
74621;BME280;75998;47.550;19.254;2024-02-21T09:33:38;99875.19;;;11.47;55.88
74621;BME280;75998;47.550;19.254;2024-02-21T09:36:06;99978.69;;;11.99;55.89
74621;BME280;75998;47.550;19.254;2024-02-21T09:38:35;99912.06;;;10.97;56.76
74621;BME280;75998;47.550;19.254;2024-02-21T09:41:35;99948.28;;;11.96;56.56
74621;BME280;75998;47.550;19.254;2024-02-21T09:44:06;99908.50;;;11.90;56.09
74621;BME280;75998;47.550;19.254;2024-02-21T09:51:38;99872.91;;;10.32;57.93
74621;BME280;75998;47.550;19.254;2024-02-21T09:54:08;99854.38;;;11.60;55.81
74621;BME280;75998;47.550;19.254;2024-02-21T09:56:36;99967.19;;;13.02;54.79
74621;BME280;75998;47.550;19.254;2024-02-21T09:59:04;99844.31;;;11.83;53.47
74621;BME280;75998;47.550;19.254;2024-02-21T10:01:34;99918.00;;;12.35;53.43
74621;BME280;75998;47.550;19.254;2024-02-21T10:04:00;99923.03;;;12.53;52.29
74621;BME280;75998;47.550;19.254;2024-02-21T10:06:28;99952.56;;;12.98;53.81
74621;BME280;75998;47.550;19.254;2024-02-21T10:08:56;99966.69;;;13.09;52.87
74621;BME280;75998;47.550;19.254;2024-02-21T10:11:25;99909.75;;;12.56;53.25
74621;BME280;75998;47.550;19.254;2024-02-21T10:14:07;99905.25;;;11.70;54.68
74621;BME280;75998;47.550;19.254;2024-02-21T10:16:33;99953.50;;;11.96;56.20
74621;BME280;75998;47.550;19.254;2024-02-21T10:19:04;99862.31;;;11.28;55.83
74621;BME280;75998;47.550;19.254;2024-02-21T10:21:30;99877.31;;;10.95;57.23
74621;BME280;75998;47.550;19.254;2024-02-21T10:23:55;99876.91;;;10.71;57.24
74621;BME280;75998;47.550;19.254;2024-02-21T10:26:24;99925.75;;;10.70;57.64
74621;BME280;75998;47.550;19.254;2024-02-21T10:28:52;99940.75;;;10.67;57.81
74621;BME280;75998;47.550;19.254;2024-02-21T10:31:27;99876.19;;;11.45;55.12
74621;BME280;75998;47.550;19.254;2024-02-21T10:33:59;99933.34;;;12.27;54.34
74621;BME280;75998;47.550;19.254;2024-02-21T10:36:37;99848.00;;;11.64;53.55
74621;BME280;75998;47.550;19.254;2024-02-21T10:39:03;99897.38;;;11.86;54.22
74621;BME280;75998;47.550;19.254;2024-02-21T10:41:30;99924.16;;;12.20;52.57
74621;BME280;75998;47.550;19.254;2024-02-21T10:43:57;99839.00;;;11.40;53.20
74621;BME280;75998;47.550;19.254;2024-02-21T10:46:23;99914.28;;;11.50;53.99
74621;BME280;75998;47.550;19.254;2024-02-21T10:49:10;99917.59;;;12.41;52.57
74621;BME280;75998;47.550;19.254;2024-02-21T10:51:44;99880.56;;;12.33;52.03
74621;BME280;75998;47.550;19.254;2024-02-21T10:54:31;99814.88;;;12.08;51.67
74621;BME280;75998;47.550;19.254;2024-02-21T10:57:02;99864.63;;;12.78;51.32
74621;BME280;75998;47.550;19.254;2024-02-21T10:59:35;99892.38;;;12.82;52.59
74621;BME280;75998;47.550;19.254;2024-02-21T11:02:05;99903.47;;;12.30;52.30
74621;BME280;75998;47.550;19.254;2024-02-21T11:04:32;99858.16;;;11.85;52.48
74621;BME280;75998;47.550;19.254;2024-02-21T11:07:05;99848.75;;;11.96;53.77
74621;BME280;75998;47.550;19.254;2024-02-21T11:09:36;99879.66;;;13.03;50.90
74621;BME280;75998;47.550;19.254;2024-02-21T11:12:03;99840.41;;;12.33;50.50
74621;BME280;75998;47.550;19.254;2024-02-21T11:14:30;99809.09;;;12.03;51.75
74621;BME280;75998;47.550;19.254;2024-02-21T11:17:03;99843.72;;;11.77;52.81
74621;BME280;75998;47.550;19.254;2024-02-21T11:19:42;99870.34;;;12.00;53.34
74621;BME280;75998;47.550;19.254;2024-02-21T11:22:22;99834.50;;;11.42;55.10
74621;BME280;75998;47.550;19.254;2024-02-21T11:24:50;99821.53;;;11.55;55.23
74621;BME280;75998;47.550;19.254;2024-02-21T11:27:22;99863.38;;;11.70;54.89
74621;BME280;75998;47.550;19.254;2024-02-21T11:29:57;99836.34;;;11.70;54.52
74621;BME280;75998;47.550;19.254;2024-02-21T11:32:25;99854.66;;;11.56;54.65
74621;BME280;75998;47.550;19.254;2024-02-21T11:37:28;99781.50;;;11.24;54.92
74621;BME280;75998;47.550;19.254;2024-02-21T11:39:57;99867.03;;;11.38;54.99
74621;BME280;75998;47.550;19.254;2024-02-21T11:42:26;99780.97;;;10.73;55.50
74621;BME280;75998;47.550;19.254;2024-02-21T11:44:59;99825.38;;;11.49;55.66
74621;BME280;75998;47.550;19.254;2024-02-21T11:47:28;99846.19;;;11.36;55.50
74621;BME280;75998;47.550;19.254;2024-02-21T11:49:54;99815.78;;;11.19;56.16
74621;BME280;75998;47.550;19.254;2024-02-21T11:52:25;99844.44;;;11.51;55.61
74621;BME280;75998;47.550;19.254;2024-02-21T11:54:54;99669.00;;;10.03;55.25
74621;BME280;75998;47.550;19.254;2024-02-21T11:57:24;99806.44;;;10.53;56.32
74621;BME280;75998;47.550;19.254;2024-02-21T11:59:51;99814.09;;;11.02;55.96
74621;BME280;75998;47.550;19.254;2024-02-21T12:02:17;99810.59;;;11.03;56.29
74621;BME280;75998;47.550;19.254;2024-02-21T12:04:46;99818.00;;;11.25;55.92
74621;BME280;75998;47.550;19.254;2024-02-21T12:07:14;99828.59;;;11.38;55.37
74621;BME280;75998;47.550;19.254;2024-02-21T12:09:44;99774.63;;;10.77;55.53
74621;BME280;75998;47.550;19.254;2024-02-21T12:12:19;99773.78;;;10.76;55.75
74621;BME280;75998;47.550;19.254;2024-02-21T12:14:47;99807.38;;;11.28;54.94
74621;BME280;75998;47.550;19.254;2024-02-21T12:17:22;99734.88;;;10.86;55.02
74621;BME280;75998;47.550;19.254;2024-02-21T12:19:48;99784.38;;;11.19;55.65
74621;BME280;75998;47.550;19.254;2024-02-21T12:22:20;99800.63;;;11.24;55.36
74621;BME280;75998;47.550;19.254;2024-02-21T12:24:46;99751.94;;;10.77;55.77
74621;BME280;75998;47.550;19.254;2024-02-21T12:27:13;99739.63;;;10.79;55.53
74621;BME280;75998;47.550;19.254;2024-02-21T12:29:41;99743.91;;;10.80;55.42
74621;BME280;75998;47.550;19.254;2024-02-21T12:32:10;99734.81;;;10.72;55.27
74621;BME280;75998;47.550;19.254;2024-02-21T12:34:38;99708.16;;;10.51;55.15
74621;BME280;75998;47.550;19.254;2024-02-21T12:37:06;99805.03;;;10.94;54.82
74621;BME280;75998;47.550;19.254;2024-02-21T12:39:32;99704.09;;;10.45;54.87
74621;BME280;75998;47.550;19.254;2024-02-21T12:41:58;99742.25;;;10.79;54.21
74621;BME280;75998;47.550;19.254;2024-02-21T12:44:29;99789.03;;;10.84;53.58
74621;BME280;75998;47.550;19.254;2024-02-21T12:46:59;99794.97;;;11.02;54.76
74621;BME280;75998;47.550;19.254;2024-02-21T12:49:31;99687.41;;;10.48;53.76
74621;BME280;75998;47.550;19.254;2024-02-21T12:52:02;99714.22;;;11.55;54.03
74621;BME280;75998;47.550;19.254;2024-02-21T12:54:29;99767.81;;;12.06;54.50
74621;BME280;75998;47.550;19.254;2024-02-21T12:56:59;99705.63;;;11.24;53.18
74621;BME280;75998;47.550;19.254;2024-02-21T12:59:29;99642.91;;;10.49;53.58
74621;BME280;75998;47.550;19.254;2024-02-21T13:01:55;99674.78;;;11.00;55.17
74621;BME280;75998;47.550;19.254;2024-02-21T13:04:20;99767.06;;;11.75;54.19
74621;BME280;75998;47.550;19.254;2024-02-21T13:06:48;99769.47;;;11.64;53.33
74621;BME280;75998;47.550;19.254;2024-02-21T13:09:14;99671.59;;;10.65;53.04
74621;BME280;75998;47.550;19.254;2024-02-21T13:11:40;99724.22;;;10.89;52.92
74621;BME280;75998;47.550;19.254;2024-02-21T13:14:07;99755.00;;;11.00;54.26
74621;BME280;75998;47.550;19.254;2024-02-21T13:16:35;99753.84;;;11.34;54.06
74621;BME280;75998;47.550;19.254;2024-02-21T13:19:05;99756.09;;;11.26;53.17
74621;BME280;75998;47.550;19.254;2024-02-21T13:21:33;99722.47;;;10.90;53.07
74621;BME280;75998;47.550;19.254;2024-02-21T13:23:58;99705.03;;;11.04;52.93
74621;BME280;75998;47.550;19.254;2024-02-21T13:26:24;99738.06;;;11.64;52.13
74621;BME280;75998;47.550;19.254;2024-02-21T13:28:52;99721.72;;;11.46;52.06
74621;BME280;75998;47.550;19.254;2024-02-21T13:31:18;99725.91;;;11.92;51.09
74621;BME280;75998;47.550;19.254;2024-02-21T13:33:43;99690.69;;;11.69;51.57
74621;BME280;75998;47.550;19.254;2024-02-21T13:36:12;99683.75;;;11.25;52.27
74621;BME280;75998;47.550;19.254;2024-02-21T13:38:38;99726.66;;;11.37;52.93
74621;BME280;75998;47.550;19.254;2024-02-21T13:41:06;99728.44;;;11.50;53.17
74621;BME280;75998;47.550;19.254;2024-02-21T13:43:35;99725.28;;;11.60;53.27
74621;BME280;75998;47.550;19.254;2024-02-21T13:46:03;99636.97;;;11.20;52.91
74621;BME280;75998;47.550;19.254;2024-02-21T13:48:33;99651.81;;;11.34;52.76
74621;BME280;75998;47.550;19.254;2024-02-21T13:50:59;99574.00;;;10.95;51.74
74621;BME280;75998;47.550;19.254;2024-02-21T13:53:24;99639.91;;;11.57;51.97
74621;BME280;75998;47.550;19.254;2024-02-21T13:55:51;99720.22;;;11.99;51.73
74621;BME280;75998;47.550;19.254;2024-02-21T13:58:20;99722.72;;;11.58;52.54
74621;BME280;75998;47.550;19.254;2024-02-21T14:00:52;99664.59;;;11.10;53.23
74621;BME280;75998;47.550;19.254;2024-02-21T14:03:18;99698.97;;;11.04;54.18
74621;BME280;75998;47.550;19.254;2024-02-21T14:05:48;99641.63;;;10.56;54.19
74621;BME280;75998;47.550;19.254;2024-02-21T14:08:14;99724.72;;;10.96;54.19